sensor_id;sensor_type;location;lat;lon;timestamp;temperature;humidity
32446;DHT22;18899;50.748;7.102;2023-07-02T00:01:55;16.50;99.90
32446;DHT22;18899;50.748;7.102;2023-07-02T00:04:21;16.50;99.90
32446;DHT22;18899;50.748;7.102;2023-07-02T00:06:46;16.50;99.90
32446;DHT22;18899;50.748;7.102;2023-07-02T00:09:12;16.60;99.90
32446;DHT22;18899;50.748;7.102;2023-07-02T00:11:39;16.60;99.90
32446;DHT22;18899;50.748;7.102;2023-07-02T00:14:09;16.60;99.90
32446;DHT22;18899;50.748;7.102;2023-07-02T00:16:52;16.60;99.90
32446;DHT22;18899;50.748;7.102;2023-07-02T00:19:18;16.60;99.90
32446;DHT22;18899;50.748;7.102;2023-07-02T00:21:44;16.60;99.90
32446;DHT22;18899;50.748;7.102;2023-07-02T00:24:10;16.70;99.90
32446;DHT22;18899;50.748;7.102;2023-07-02T00:26:36;16.70;99.90
32446;DHT22;18899;50.748;7.102;2023-07-02T00:29:03;16.60;99.90
32446;DHT22;18899;50.748;7.102;2023-07-02T00:31:31;16.60;99.90
32446;DHT22;18899;50.748;7.102;2023-07-02T00:33:57;16.60;99.90
32446;DHT22;18899;50.748;7.102;2023-07-02T00:36:22;16.60;99.90
32446;DHT22;18899;50.748;7.102;2023-07-02T00:38:49;16.60;99.90
32446;DHT22;18899;50.748;7.102;2023-07-02T00:41:15;16.60;99.90
32446;DHT22;18899;50.748;7.102;2023-07-02T00:43:41;16.50;99.90
32446;DHT22;18899;50.748;7.102;2023-07-02T00:46:17;16.50;99.90
32446;DHT22;18899;50.748;7.102;2023-07-02T00:48:53;16.50;99.90
32446;DHT22;18899;50.748;7.102;2023-07-02T00:51:21;16.60;99.90
32446;DHT22;18899;50.748;7.102;2023-07-02T00:53:48;16.60;99.90
32446;DHT22;18899;50.748;7.102;2023-07-02T00:56:14;16.50;99.90
32446;DHT22;18899;50.748;7.102;2023-07-02T00:58:42;16.50;99.90
32446;DHT22;18899;50.748;7.102;2023-07-02T01:01:17;16.50;99.90
32446;DHT22;18899;50.748;7.102;2023-07-02T01:04:06;16.50;99.90
32446;DHT22;18899;50.748;7.102;2023-07-02T01:06:37;16.40;99.90
32446;DHT22;18899;50.748;7.102;2023-07-02T01:09:06;16.40;99.90
32446;DHT22;18899;50.748;7.102;2023-07-02T01:11:49;16.30;99.90
32446;DHT22;18899;50.748;7.102;2023-07-02T01:16:49;16.10;99.90
32446;DHT22;18899;50.748;7.102;2023-07-02T01:19:21;16.10;99.90
32446;DHT22;18899;50.748;7.102;2023-07-02T01:21:48;16.00;99.90
32446;DHT22;18899;50.748;7.102;2023-07-02T01:24:13;15.90;99.90
32446;DHT22;18899;50.748;7.102;2023-07-02T01:26:39;15.90;99.90
32446;DHT22;18899;50.748;7.102;2023-07-02T01:29:18;15.90;99.90
32446;DHT22;18899;50.748;7.102;2023-07-02T01:31:44;15.80;99.90
32446;DHT22;18899;50.748;7.102;2023-07-02T01:34:11;15.80;99.90
32446;DHT22;18899;50.748;7.102;2023-07-02T01:36:37;15.70;99.90
32446;DHT22;18899;50.748;7.102;2023-07-02T01:39:03;15.70;99.90
32446;DHT22;18899;50.748;7.102;2023-07-02T01:41:29;15.70;99.90
32446;DHT22;18899;50.748;7.102;2023-07-02T01:43:55;15.60;99.90
32446;DHT22;18899;50.748;7.102;2023-07-02T01:46:21;15.50;99.90
32446;DHT22;18899;50.748;7.102;2023-07-02T01:48:46;15.50;99.90
32446;DHT22;18899;50.748;7.102;2023-07-02T01:51:12;15.50;99.90
32446;DHT22;18899;50.748;7.102;2023-07-02T01:53:39;15.40;99.90
32446;DHT22;18899;50.748;7.102;2023-07-02T01:56:04;15.40;99.90
32446;DHT22;18899;50.748;7.102;2023-07-02T01:58:30;15.40;99.90
32446;DHT22;18899;50.748;7.102;2023-07-02T02:00:55;15.50;99.90
32446;DHT22;18899;50.748;7.102;2023-07-02T02:03:22;15.50;99.90
32446;DHT22;18899;50.748;7.102;2023-07-02T02:05:47;15.40;99.90
32446;DHT22;18899;50.748;7.102;2023-07-02T02:08:13;15.50;99.90
32446;DHT22;18899;50.748;7.102;2023-07-02T02:10:38;15.50;99.90
32446;DHT22;18899;50.748;7.102;2023-07-02T02:13:04;15.50;99.90
32446;DHT22;18899;50.748;7.102;2023-07-02T02:15:30;15.50;99.90
32446;DHT22;18899;50.748;7.102;2023-07-02T02:17:56;15.60;99.90
32446;DHT22;18899;50.748;7.102;2023-07-02T02:20:21;15.60;99.90
32446;DHT22;18899;50.748;7.102;2023-07-02T02:22:47;15.60;99.90
32446;DHT22;18899;50.748;7.102;2023-07-02T02:25:12;15.60;99.90
32446;DHT22;18899;50.748;7.102;2023-07-02T02:27:38;15.70;99.90
32446;DHT22;18899;50.748;7.102;2023-07-02T02:30:04;15.70;99.90
32446;DHT22;18899;50.748;7.102;2023-07-02T02:32:30;15.70;99.90
32446;DHT22;18899;50.748;7.102;2023-07-02T02:34:56;15.70;99.90
32446;DHT22;18899;50.748;7.102;2023-07-02T02:37:21;15.80;99.90
32446;DHT22;18899;50.748;7.102;2023-07-02T02:39:48;15.80;99.90
32446;DHT22;18899;50.748;7.102;2023-07-02T02:42:14;15.80;99.90
32446;DHT22;18899;50.748;7.102;2023-07-02T02:44:39;15.80;99.90
32446;DHT22;18899;50.748;7.102;2023-07-02T02:47:05;15.90;99.90
32446;DHT22;18899;50.748;7.102;2023-07-02T02:49:31;15.90;99.90
32446;DHT22;18899;50.748;7.102;2023-07-02T02:51:56;15.90;99.90
32446;DHT22;18899;50.748;7.102;2023-07-02T02:54:22;15.90;99.90
32446;DHT22;18899;50.748;7.102;2023-07-02T02:56:47;15.90;99.90
32446;DHT22;18899;50.748;7.102;2023-07-02T02:59:13;15.90;99.90
32446;DHT22;18899;50.748;7.102;2023-07-02T03:01:38;15.90;99.90
32446;DHT22;18899;50.748;7.102;2023-07-02T03:04:04;15.90;99.90
32446;DHT22;18899;50.748;7.102;2023-07-02T03:06:33;15.90;99.90
32446;DHT22;18899;50.748;7.102;2023-07-02T03:08:59;16.00;99.90
32446;DHT22;18899;50.748;7.102;2023-07-02T03:11:24;16.00;99.90
32446;DHT22;18899;50.748;7.102;2023-07-02T03:13:50;15.90;99.90
32446;DHT22;18899;50.748;7.102;2023-07-02T03:16:15;16.00;99.90
32446;DHT22;18899;50.748;7.102;2023-07-02T03:18:41;16.00;99.90
32446;DHT22;18899;50.748;7.102;2023-07-02T03:21:06;16.00;99.90
32446;DHT22;18899;50.748;7.102;2023-07-02T03:23:32;16.00;99.90
32446;DHT22;18899;50.748;7.102;2023-07-02T03:25:57;16.00;99.90
32446;DHT22;18899;50.748;7.102;2023-07-02T03:28:23;15.90;99.90
32446;DHT22;18899;50.748;7.102;2023-07-02T03:30:49;15.90;99.90
32446;DHT22;18899;50.748;7.102;2023-07-02T03:33:14;15.90;99.90
32446;DHT22;18899;50.748;7.102;2023-07-02T03:35:40;15.90;99.90
32446;DHT22;18899;50.748;7.102;2023-07-02T03:38:05;16.00;99.90
32446;DHT22;18899;50.748;7.102;2023-07-02T03:40:31;15.90;99.90
32446;DHT22;18899;50.748;7.102;2023-07-02T03:42:57;15.90;99.90
32446;DHT22;18899;50.748;7.102;2023-07-02T03:45:22;15.90;99.90
32446;DHT22;18899;50.748;7.102;2023-07-02T03:47:48;15.90;99.90
32446;DHT22;18899;50.748;7.102;2023-07-02T03:50:13;16.00;99.90
32446;DHT22;18899;50.748;7.102;2023-07-02T03:52:39;16.00;99.90
32446;DHT22;18899;50.748;7.102;2023-07-02T03:55:05;16.10;99.90
32446;DHT22;18899;50.748;7.102;2023-07-02T03:57:31;16.10;99.90
32446;DHT22;18899;50.748;7.102;2023-07-02T03:59:56;16.10;99.90
32446;DHT22;18899;50.748;7.102;2023-07-02T04:02:22;16.10;99.90
32446;DHT22;18899;50.748;7.102;2023-07-02T04:04:47;16.10;99.90
32446;DHT22;18899;50.748;7.102;2023-07-02T04:07:13;16.20;99.90
32446;DHT22;18899;50.748;7.102;2023-07-02T04:09:38;16.10;99.90
32446;DHT22;18899;50.748;7.102;2023-07-02T04:12:04;16.10;99.90
32446;DHT22;18899;50.748;7.102;2023-07-02T04:14:30;16.10;99.90
32446;DHT22;18899;50.748;7.102;2023-07-02T04:16:55;16.00;99.90
32446;DHT22;18899;50.748;7.102;2023-07-02T04:19:21;16.10;99.90
32446;DHT22;18899;50.748;7.102;2023-07-02T04:21:46;16.10;99.90
32446;DHT22;18899;50.748;7.102;2023-07-02T04:24:12;16.20;99.90
32446;DHT22;18899;50.748;7.102;2023-07-02T04:26:38;16.20;99.90
32446;DHT22;18899;50.748;7.102;2023-07-02T04:29:09;16.20;99.90
32446;DHT22;18899;50.748;7.102;2023-07-02T04:31:34;16.20;99.90
32446;DHT22;18899;50.748;7.102;2023-07-02T04:34:00;16.30;99.90
32446;DHT22;18899;50.748;7.102;2023-07-02T04:36:25;16.20;99.90
32446;DHT22;18899;50.748;7.102;2023-07-02T04:38:51;16.30;99.90
32446;DHT22;18899;50.748;7.102;2023-07-02T04:41:18;16.30;99.90
32446;DHT22;18899;50.748;7.102;2023-07-02T04:43:43;16.30;99.90
32446;DHT22;18899;50.748;7.102;2023-07-02T04:46:11;16.40;99.90
32446;DHT22;18899;50.748;7.102;2023-07-02T04:48:38;16.40;99.90
32446;DHT22;18899;50.748;7.102;2023-07-02T04:51:03;16.40;99.90
32446;DHT22;18899;50.748;7.102;2023-07-02T04:53:29;16.40;99.90
32446;DHT22;18899;50.748;7.102;2023-07-02T04:55:54;16.40;99.90
32446;DHT22;18899;50.748;7.102;2023-07-02T04:58:22;16.40;99.90
32446;DHT22;18899;50.748;7.102;2023-07-02T05:00:47;16.50;99.90
32446;DHT22;18899;50.748;7.102;2023-07-02T05:03:13;16.40;99.90
32446;DHT22;18899;50.748;7.102;2023-07-02T05:05:38;16.50;99.90
32446;DHT22;18899;50.748;7.102;2023-07-02T05:08:04;16.40;99.90
32446;DHT22;18899;50.748;7.102;2023-07-02T05:10:32;16.40;99.90
32446;DHT22;18899;50.748;7.102;2023-07-02T05:12:58;16.50;99.90
32446;DHT22;18899;50.748;7.102;2023-07-02T05:15:24;16.60;99.90
32446;DHT22;18899;50.748;7.102;2023-07-02T05:17:49;16.60;99.90
32446;DHT22;18899;50.748;7.102;2023-07-02T05:20:15;16.60;99.90
32446;DHT22;18899;50.748;7.102;2023-07-02T05:22:41;16.70;99.90
32446;DHT22;18899;50.748;7.102;2023-07-02T05:25:06;16.80;99.90
32446;DHT22;18899;50.748;7.102;2023-07-02T05:27:32;16.90;99.90
32446;DHT22;18899;50.748;7.102;2023-07-02T05:29:58;17.00;99.90
32446;DHT22;18899;50.748;7.102;2023-07-02T05:32:23;17.00;99.90
32446;DHT22;18899;50.748;7.102;2023-07-02T05:34:49;17.10;99.90
32446;DHT22;18899;50.748;7.102;2023-07-02T05:37:14;17.20;99.90
32446;DHT22;18899;50.748;7.102;2023-07-02T05:39:40;17.30;99.90
32446;DHT22;18899;50.748;7.102;2023-07-02T05:42:05;17.50;99.90
32446;DHT22;18899;50.748;7.102;2023-07-02T05:44:31;17.60;99.90
32446;DHT22;18899;50.748;7.102;2023-07-02T05:46:56;17.70;99.90
32446;DHT22;18899;50.748;7.102;2023-07-02T05:49:22;17.70;99.90
32446;DHT22;18899;50.748;7.102;2023-07-02T05:51:48;17.70;99.90
32446;DHT22;18899;50.748;7.102;2023-07-02T05:54:13;17.80;99.90
32446;DHT22;18899;50.748;7.102;2023-07-02T05:56:39;17.90;99.90
32446;DHT22;18899;50.748;7.102;2023-07-02T05:59:04;18.10;99.90
32446;DHT22;18899;50.748;7.102;2023-07-02T06:01:30;18.30;99.90
32446;DHT22;18899;50.748;7.102;2023-07-02T06:03:55;18.40;99.90
32446;DHT22;18899;50.748;7.102;2023-07-02T06:06:22;18.40;99.90
32446;DHT22;18899;50.748;7.102;2023-07-02T06:08:51;18.60;99.90
32446;DHT22;18899;50.748;7.102;2023-07-02T06:11:17;18.50;99.90
32446;DHT22;18899;50.748;7.102;2023-07-02T06:13:42;18.60;99.90
32446;DHT22;18899;50.748;7.102;2023-07-02T06:16:08;18.70;99.90
32446;DHT22;18899;50.748;7.102;2023-07-02T06:18:33;18.90;99.90
32446;DHT22;18899;50.748;7.102;2023-07-02T06:20:59;18.90;99.90
32446;DHT22;18899;50.748;7.102;2023-07-02T06:23:25;19.00;99.90
32446;DHT22;18899;50.748;7.102;2023-07-02T06:25:50;19.20;99.90
32446;DHT22;18899;50.748;7.102;2023-07-02T06:28:18;19.20;99.90
32446;DHT22;18899;50.748;7.102;2023-07-02T06:30:44;19.20;99.90
32446;DHT22;18899;50.748;7.102;2023-07-02T06:33:10;19.20;99.90
32446;DHT22;18899;50.748;7.102;2023-07-02T06:35:35;19.20;99.90
32446;DHT22;18899;50.748;7.102;2023-07-02T06:38:01;19.20;99.90
32446;DHT22;18899;50.748;7.102;2023-07-02T06:40:26;19.30;99.90
32446;DHT22;18899;50.748;7.102;2023-07-02T06:42:52;19.50;99.90
32446;DHT22;18899;50.748;7.102;2023-07-02T06:45:18;19.70;99.90
32446;DHT22;18899;50.748;7.102;2023-07-02T06:47:43;20.00;99.90
32446;DHT22;18899;50.748;7.102;2023-07-02T06:50:09;20.40;99.90
32446;DHT22;18899;50.748;7.102;2023-07-02T06:52:35;20.60;99.90
32446;DHT22;18899;50.748;7.102;2023-07-02T06:55:02;20.90;99.90
32446;DHT22;18899;50.748;7.102;2023-07-02T06:57:28;21.10;99.90
32446;DHT22;18899;50.748;7.102;2023-07-02T07:00:00;21.20;99.90
32446;DHT22;18899;50.748;7.102;2023-07-02T07:02:27;21.20;99.90
32446;DHT22;18899;50.748;7.102;2023-07-02T07:04:52;21.30;99.90
32446;DHT22;18899;50.748;7.102;2023-07-02T07:07:18;21.10;99.90
32446;DHT22;18899;50.748;7.102;2023-07-02T07:09:44;21.00;99.90
32446;DHT22;18899;50.748;7.102;2023-07-02T07:12:10;20.80;99.90
32446;DHT22;18899;50.748;7.102;2023-07-02T07:14:35;20.80;99.90
32446;DHT22;18899;50.748;7.102;2023-07-02T07:17:01;20.80;99.90
32446;DHT22;18899;50.748;7.102;2023-07-02T07:19:27;21.00;99.90
32446;DHT22;18899;50.748;7.102;2023-07-02T07:21:52;21.10;99.90
32446;DHT22;18899;50.748;7.102;2023-07-02T07:24:18;21.30;99.90
32446;DHT22;18899;50.748;7.102;2023-07-02T07:26:43;21.20;99.90
32446;DHT22;18899;50.748;7.102;2023-07-02T07:29:10;21.30;99.90
32446;DHT22;18899;50.748;7.102;2023-07-02T07:31:35;21.20;99.90
32446;DHT22;18899;50.748;7.102;2023-07-02T07:34:01;21.00;99.90
32446;DHT22;18899;50.748;7.102;2023-07-02T07:36:26;20.90;99.90
32446;DHT22;18899;50.748;7.102;2023-07-02T07:38:52;20.80;99.90
32446;DHT22;18899;50.748;7.102;2023-07-02T07:41:17;21.00;99.90
32446;DHT22;18899;50.748;7.102;2023-07-02T07:43:43;21.30;99.90
32446;DHT22;18899;50.748;7.102;2023-07-02T07:46:09;22.20;99.90
32446;DHT22;18899;50.748;7.102;2023-07-02T07:48:35;23.10;99.90
32446;DHT22;18899;50.748;7.102;2023-07-02T07:51:00;23.60;99.90
32446;DHT22;18899;50.748;7.102;2023-07-02T07:53:26;24.60;94.80
32446;DHT22;18899;50.748;7.102;2023-07-02T07:55:51;25.80;89.60
32446;DHT22;18899;50.748;7.102;2023-07-02T07:58:17;26.60;77.50
32446;DHT22;18899;50.748;7.102;2023-07-02T08:00:42;26.90;74.10
32446;DHT22;18899;50.748;7.102;2023-07-02T08:03:10;27.80;68.60
32446;DHT22;18899;50.748;7.102;2023-07-02T08:05:35;28.70;64.10
32446;DHT22;18899;50.748;7.102;2023-07-02T08:08:01;27.70;61.70
32446;DHT22;18899;50.748;7.102;2023-07-02T08:10:26;26.90;63.90
32446;DHT22;18899;50.748;7.102;2023-07-02T08:12:53;26.60;65.00
32446;DHT22;18899;50.748;7.102;2023-07-02T08:15:19;26.40;64.50
32446;DHT22;18899;50.748;7.102;2023-07-02T08:17:44;26.00;67.50
32446;DHT22;18899;50.748;7.102;2023-07-02T08:20:11;25.40;70.00
32446;DHT22;18899;50.748;7.102;2023-07-02T08:22:40;25.00;71.50
32446;DHT22;18899;50.748;7.102;2023-07-02T08:25:06;24.60;72.00
32446;DHT22;18899;50.748;7.102;2023-07-02T08:27:32;23.80;75.70
32446;DHT22;18899;50.748;7.102;2023-07-02T08:29:58;23.40;78.60
32446;DHT22;18899;50.748;7.102;2023-07-02T08:32:23;23.20;81.00
32446;DHT22;18899;50.748;7.102;2023-07-02T08:34:49;23.20;79.90
32446;DHT22;18899;50.748;7.102;2023-07-02T08:37:16;23.10;79.60
32446;DHT22;18899;50.748;7.102;2023-07-02T08:39:42;23.20;81.50
32446;DHT22;18899;50.748;7.102;2023-07-02T08:42:08;23.30;78.80
32446;DHT22;18899;50.748;7.102;2023-07-02T08:44:33;23.50;79.00
32446;DHT22;18899;50.748;7.102;2023-07-02T08:46:59;24.70;78.10
32446;DHT22;18899;50.748;7.102;2023-07-02T08:49:25;25.70;74.40
32446;DHT22;18899;50.748;7.102;2023-07-02T08:51:51;26.30;71.70
32446;DHT22;18899;50.748;7.102;2023-07-02T08:54:17;25.80;70.30
32446;DHT22;18899;50.748;7.102;2023-07-02T08:56:44;25.30;71.80
32446;DHT22;18899;50.748;7.102;2023-07-02T08:59:11;24.70;73.20
32446;DHT22;18899;50.748;7.102;2023-07-02T09:01:50;24.00;72.10
32446;DHT22;18899;50.748;7.102;2023-07-02T09:04:23;24.00;71.80
32446;DHT22;18899;50.748;7.102;2023-07-02T09:07:03;24.40;71.50
32446;DHT22;18899;50.748;7.102;2023-07-02T09:09:29;23.80;73.60
32446;DHT22;18899;50.748;7.102;2023-07-02T09:11:54;23.10;76.00
32446;DHT22;18899;50.748;7.102;2023-07-02T09:14:30;22.60;76.60
32446;DHT22;18899;50.748;7.102;2023-07-02T09:17:09;22.30;78.50
32446;DHT22;18899;50.748;7.102;2023-07-02T09:19:35;22.00;79.30
32446;DHT22;18899;50.748;7.102;2023-07-02T09:22:02;21.90;82.50
32446;DHT22;18899;50.748;7.102;2023-07-02T09:24:31;22.00;82.00
32446;DHT22;18899;50.748;7.102;2023-07-02T09:26:59;22.00;83.60
32446;DHT22;18899;50.748;7.102;2023-07-02T09:29:30;21.90;82.10
32446;DHT22;18899;50.748;7.102;2023-07-02T09:31:58;21.80;83.10
32446;DHT22;18899;50.748;7.102;2023-07-02T09:34:30;21.80;85.00
32446;DHT22;18899;50.748;7.102;2023-07-02T09:36:57;21.60;85.30
32446;DHT22;18899;50.748;7.102;2023-07-02T09:39:28;21.30;85.60
32446;DHT22;18899;50.748;7.102;2023-07-02T09:41:57;21.40;87.90
32446;DHT22;18899;50.748;7.102;2023-07-02T09:44:31;21.80;87.90
32446;DHT22;18899;50.748;7.102;2023-07-02T09:47:07;22.30;83.90
32446;DHT22;18899;50.748;7.102;2023-07-02T09:49:41;22.60;84.80
32446;DHT22;18899;50.748;7.102;2023-07-02T09:52:09;22.90;84.30
32446;DHT22;18899;50.748;7.102;2023-07-02T09:54:36;22.80;86.60
32446;DHT22;18899;50.748;7.102;2023-07-02T09:57:03;22.20;86.10
32446;DHT22;18899;50.748;7.102;2023-07-02T09:59:29;22.20;86.50
32446;DHT22;18899;50.748;7.102;2023-07-02T10:01:56;22.60;87.50
32446;DHT22;18899;50.748;7.102;2023-07-02T10:04:22;23.70;83.90
32446;DHT22;18899;50.748;7.102;2023-07-02T10:06:55;24.60;79.80
32446;DHT22;18899;50.748;7.102;2023-07-02T10:09:33;25.60;74.10
32446;DHT22;18899;50.748;7.102;2023-07-02T10:11:59;26.10;73.00
32446;DHT22;18899;50.748;7.102;2023-07-02T10:14:24;26.90;67.60
32446;DHT22;18899;50.748;7.102;2023-07-02T10:16:51;27.00;65.80
32446;DHT22;18899;50.748;7.102;2023-07-02T10:19:16;26.00;66.60
32446;DHT22;18899;50.748;7.102;2023-07-02T10:21:42;25.80;67.40
32446;DHT22;18899;50.748;7.102;2023-07-02T10:24:12;25.80;69.30
32446;DHT22;18899;50.748;7.102;2023-07-02T10:26:38;26.00;67.50
32446;DHT22;18899;50.748;7.102;2023-07-02T10:29:03;26.20;66.20
32446;DHT22;18899;50.748;7.102;2023-07-02T10:31:29;26.40;67.10
32446;DHT22;18899;50.748;7.102;2023-07-02T10:33:55;26.00;63.80
32446;DHT22;18899;50.748;7.102;2023-07-02T10:36:22;25.60;65.30
32446;DHT22;18899;50.748;7.102;2023-07-02T10:38:51;25.10;65.50
32446;DHT22;18899;50.748;7.102;2023-07-02T10:41:26;24.50;68.20
32446;DHT22;18899;50.748;7.102;2023-07-02T10:43:51;23.70;71.90
32446;DHT22;18899;50.748;7.102;2023-07-02T10:46:21;23.20;71.40
32446;DHT22;18899;50.748;7.102;2023-07-02T10:48:54;22.90;72.40
32446;DHT22;18899;50.748;7.102;2023-07-02T10:51:20;22.70;72.50
32446;DHT22;18899;50.748;7.102;2023-07-02T10:53:56;22.70;74.70
32446;DHT22;18899;50.748;7.102;2023-07-02T10:56:22;22.10;75.90
32446;DHT22;18899;50.748;7.102;2023-07-02T10:58:48;21.80;78.90
32446;DHT22;18899;50.748;7.102;2023-07-02T11:01:25;22.00;80.20
32446;DHT22;18899;50.748;7.102;2023-07-02T11:04:00;22.10;78.50
32446;DHT22;18899;50.748;7.102;2023-07-02T11:06:28;22.30;78.30
32446;DHT22;18899;50.748;7.102;2023-07-02T11:08:54;22.60;79.00
32446;DHT22;18899;50.748;7.102;2023-07-02T11:11:23;23.00;75.80
32446;DHT22;18899;50.748;7.102;2023-07-02T11:13:50;23.30;75.10
32446;DHT22;18899;50.748;7.102;2023-07-02T11:18:44;24.10;70.20
32446;DHT22;18899;50.748;7.102;2023-07-02T11:21:10;23.80;72.50
32446;DHT22;18899;50.748;7.102;2023-07-02T11:23:36;24.10;76.90
32446;DHT22;18899;50.748;7.102;2023-07-02T11:26:02;24.20;71.50
32446;DHT22;18899;50.748;7.102;2023-07-02T11:28:29;24.40;69.60
32446;DHT22;18899;50.748;7.102;2023-07-02T11:30:57;24.60;65.90
32446;DHT22;18899;50.748;7.102;2023-07-02T11:33:40;24.40;65.60
32446;DHT22;18899;50.748;7.102;2023-07-02T11:36:07;24.10;66.50
32446;DHT22;18899;50.748;7.102;2023-07-02T11:38:36;23.80;66.40
32446;DHT22;18899;50.748;7.102;2023-07-02T11:41:05;23.20;67.90
32446;DHT22;18899;50.748;7.102;2023-07-02T11:43:31;22.80;69.40
32446;DHT22;18899;50.748;7.102;2023-07-02T11:45:57;22.40;70.70
32446;DHT22;18899;50.748;7.102;2023-07-02T11:48:22;22.50;72.00
32446;DHT22;18899;50.748;7.102;2023-07-02T11:50:48;22.90;75.10
32446;DHT22;18899;50.748;7.102;2023-07-02T11:53:14;23.70;70.10
32446;DHT22;18899;50.748;7.102;2023-07-02T11:55:39;24.10;68.10
32446;DHT22;18899;50.748;7.102;2023-07-02T11:58:05;24.30;66.40
32446;DHT22;18899;50.748;7.102;2023-07-02T12:00:30;24.00;66.60
32446;DHT22;18899;50.748;7.102;2023-07-02T12:02:56;23.90;69.20
32446;DHT22;18899;50.748;7.102;2023-07-02T12:05:21;24.00;69.30
32446;DHT22;18899;50.748;7.102;2023-07-02T12:07:47;24.10;69.40
32446;DHT22;18899;50.748;7.102;2023-07-02T12:10:13;24.00;68.00
32446;DHT22;18899;50.748;7.102;2023-07-02T12:12:38;23.60;68.10
32446;DHT22;18899;50.748;7.102;2023-07-02T12:15:04;23.50;70.70
32446;DHT22;18899;50.748;7.102;2023-07-02T12:17:30;23.60;71.10
32446;DHT22;18899;50.748;7.102;2023-07-02T12:19:56;23.70;70.70
32446;DHT22;18899;50.748;7.102;2023-07-02T12:22:22;24.00;70.40
32446;DHT22;18899;50.748;7.102;2023-07-02T12:24:48;24.00;70.60
32446;DHT22;18899;50.748;7.102;2023-07-02T12:27:15;23.70;70.50
32446;DHT22;18899;50.748;7.102;2023-07-02T12:29:41;23.60;72.50
32446;DHT22;18899;50.748;7.102;2023-07-02T12:32:07;23.50;72.80
32446;DHT22;18899;50.748;7.102;2023-07-02T12:34:32;23.50;71.60
32446;DHT22;18899;50.748;7.102;2023-07-02T12:36:58;23.60;73.00
32446;DHT22;18899;50.748;7.102;2023-07-02T12:39:23;23.80;72.70
32446;DHT22;18899;50.748;7.102;2023-07-02T12:41:49;23.90;72.00
32446;DHT22;18899;50.748;7.102;2023-07-02T12:44:14;24.00;75.60
32446;DHT22;18899;50.748;7.102;2023-07-02T12:46:40;23.80;70.30
32446;DHT22;18899;50.748;7.102;2023-07-02T12:49:05;23.60;70.30
32446;DHT22;18899;50.748;7.102;2023-07-02T12:51:31;23.90;70.40
32446;DHT22;18899;50.748;7.102;2023-07-02T12:53:56;23.80;69.10
32446;DHT22;18899;50.748;7.102;2023-07-02T12:56:22;23.60;72.30
32446;DHT22;18899;50.748;7.102;2023-07-02T12:58:47;23.70;69.60
32446;DHT22;18899;50.748;7.102;2023-07-02T13:01:13;23.60;68.70
32446;DHT22;18899;50.748;7.102;2023-07-02T13:03:45;23.60;69.00
32446;DHT22;18899;50.748;7.102;2023-07-02T13:06:11;23.80;69.20
32446;DHT22;18899;50.748;7.102;2023-07-02T13:08:36;23.90;67.90
32446;DHT22;18899;50.748;7.102;2023-07-02T13:11:02;23.90;69.30
32446;DHT22;18899;50.748;7.102;2023-07-02T13:13:27;23.90;67.50
32446;DHT22;18899;50.748;7.102;2023-07-02T13:15:53;23.80;70.90
32446;DHT22;18899;50.748;7.102;2023-07-02T13:18:18;23.90;68.70
32446;DHT22;18899;50.748;7.102;2023-07-02T13:20:44;23.80;70.40
32446;DHT22;18899;50.748;7.102;2023-07-02T13:23:09;24.00;70.30
32446;DHT22;18899;50.748;7.102;2023-07-02T13:25:35;24.00;69.30
32446;DHT22;18899;50.748;7.102;2023-07-02T13:28:00;23.70;69.80
32446;DHT22;18899;50.748;7.102;2023-07-02T13:30:26;23.80;71.40
32446;DHT22;18899;50.748;7.102;2023-07-02T13:32:54;23.90;71.80
32446;DHT22;18899;50.748;7.102;2023-07-02T13:35:19;24.00;67.80
32446;DHT22;18899;50.748;7.102;2023-07-02T13:37:45;24.00;68.60
32446;DHT22;18899;50.748;7.102;2023-07-02T13:40:11;23.80;68.30
32446;DHT22;18899;50.748;7.102;2023-07-02T13:42:38;23.80;69.90
32446;DHT22;18899;50.748;7.102;2023-07-02T13:45:04;23.80;71.30
32446;DHT22;18899;50.748;7.102;2023-07-02T13:47:30;23.90;70.10
32446;DHT22;18899;50.748;7.102;2023-07-02T13:49:55;24.40;66.70
32446;DHT22;18899;50.748;7.102;2023-07-02T13:52:21;24.40;65.00
32446;DHT22;18899;50.748;7.102;2023-07-02T13:54:46;24.30;63.90
32446;DHT22;18899;50.748;7.102;2023-07-02T13:57:12;24.20;64.60
32446;DHT22;18899;50.748;7.102;2023-07-02T13:59:37;24.10;66.40
32446;DHT22;18899;50.748;7.102;2023-07-02T14:02:03;24.20;65.50
32446;DHT22;18899;50.748;7.102;2023-07-02T14:04:29;24.40;63.50
32446;DHT22;18899;50.748;7.102;2023-07-02T14:06:54;24.40;64.20
32446;DHT22;18899;50.748;7.102;2023-07-02T14:09:20;24.40;62.60
32446;DHT22;18899;50.748;7.102;2023-07-02T14:11:45;24.20;62.30
32446;DHT22;18899;50.748;7.102;2023-07-02T14:14:11;24.10;65.40
32446;DHT22;18899;50.748;7.102;2023-07-02T14:16:37;24.30;68.10
32446;DHT22;18899;50.748;7.102;2023-07-02T14:19:02;24.30;66.80
32446;DHT22;18899;50.748;7.102;2023-07-02T14:21:28;24.40;65.80
32446;DHT22;18899;50.748;7.102;2023-07-02T14:23:53;24.10;65.40
32446;DHT22;18899;50.748;7.102;2023-07-02T14:26:19;23.80;66.30
32446;DHT22;18899;50.748;7.102;2023-07-02T14:28:44;23.70;65.50
32446;DHT22;18899;50.748;7.102;2023-07-02T14:31:10;23.80;68.60
32446;DHT22;18899;50.748;7.102;2023-07-02T14:33:37;23.90;63.30
32446;DHT22;18899;50.748;7.102;2023-07-02T14:36:04;24.00;62.70
32446;DHT22;18899;50.748;7.102;2023-07-02T14:38:29;23.60;61.80
32446;DHT22;18899;50.748;7.102;2023-07-02T14:40:56;23.50;62.70
32446;DHT22;18899;50.748;7.102;2023-07-02T14:43:24;23.60;62.20
32446;DHT22;18899;50.748;7.102;2023-07-02T14:45:53;23.60;63.40
32446;DHT22;18899;50.748;7.102;2023-07-02T14:48:19;23.60;65.70
32446;DHT22;18899;50.748;7.102;2023-07-02T14:50:45;23.60;62.10
32446;DHT22;18899;50.748;7.102;2023-07-02T14:53:12;23.50;64.20
32446;DHT22;18899;50.748;7.102;2023-07-02T14:55:39;23.50;63.40
32446;DHT22;18899;50.748;7.102;2023-07-02T14:58:05;23.50;61.90
32446;DHT22;18899;50.748;7.102;2023-07-02T15:00:30;23.40;62.50
32446;DHT22;18899;50.748;7.102;2023-07-02T15:02:57;23.30;66.20
32446;DHT22;18899;50.748;7.102;2023-07-02T15:05:23;23.40;68.00
32446;DHT22;18899;50.748;7.102;2023-07-02T15:07:49;23.30;66.10
32446;DHT22;18899;50.748;7.102;2023-07-02T15:10:14;23.20;64.20
32446;DHT22;18899;50.748;7.102;2023-07-02T15:12:40;23.30;64.10
32446;DHT22;18899;50.748;7.102;2023-07-02T15:15:05;23.30;63.30
32446;DHT22;18899;50.748;7.102;2023-07-02T15:17:31;23.30;63.70
32446;DHT22;18899;50.748;7.102;2023-07-02T15:19:57;23.40;63.20
32446;DHT22;18899;50.748;7.102;2023-07-02T15:22:23;23.40;62.60
32446;DHT22;18899;50.748;7.102;2023-07-02T15:24:49;23.50;64.90
32446;DHT22;18899;50.748;7.102;2023-07-02T15:27:14;23.50;64.70
32446;DHT22;18899;50.748;7.102;2023-07-02T15:29:40;23.30;63.10
32446;DHT22;18899;50.748;7.102;2023-07-02T15:32:06;23.40;63.60